»·PEaware :: JBU727 CYVR-KPDX

JBU727 :: CYVR-KPDX

FLIGHT INFORMATION

Flight Status: Arrived
Operator:
JetBlue Airways
More flights by this operator :: More flights under this callsign
Pilot: Anonymous 5323 (5323)
Aircraft: MCDONNELL-DOUGLAS MD-88
(MD88)
More flights by this aircraft type
Origin: CYVR Vancouver Intl
Canada
Destination: KPDX Portland Intl
United States
More flights between these airports :: More routes between these airports
Route: YVR SEA BUWZO KRATR2
File this flight plan on PilotEdge
Remarks:
Altitude:
(Current/Filed)
25,000ft
Speed:
(Current/Filed)
450kts
Departed: 07-Dec-15 10:46 AM
Arrived: 07-Dec-15 11:34 AM
Distance/Time
Traveled:
218nm/0:48
Distance/Time
To Go:
Arrived

Flight Plot

Page will automatically refresh every two minutes.


Map Options




Map Legend


Flown Route
Filed Route
Departure Airport
Arrival Airport
Navaid (VOR, NDB)
Fix

Horizontal Profiles

Position Reports

Time Latitude Longitude Heading Altitude Ground
Speed
07-Dec-15 10:17 49.199000 -123.170806 278 20ft 0kts
07-Dec-15 10:18 49.199000 -123.170806 278 20ft 0kts
07-Dec-15 10:19 49.199000 -123.170806 278 20ft 0kts
07-Dec-15 10:20 49.199000 -123.170806 278 20ft 0kts
07-Dec-15 10:21 49.199000 -123.170806 278 20ft 0kts
07-Dec-15 10:22 49.199000 -123.170806 278 20ft 0kts
07-Dec-15 10:23 49.199000 -123.170806 278 20ft 0kts
07-Dec-15 10:24 49.199000 -123.170806 278 20ft 0kts
07-Dec-15 10:25 49.199000 -123.170806 278 20ft 0kts
07-Dec-15 10:26 49.199000 -123.170806 278 20ft 0kts
07-Dec-15 10:27 49.199000 -123.170806 278 20ft 0kts
07-Dec-15 10:28 49.199000 -123.170806 278 20ft 0kts
07-Dec-15 10:29 49.199000 -123.170806 278 20ft 0kts
07-Dec-15 10:30 49.199000 -123.170806 278 20ft 0kts
07-Dec-15 10:31 49.199000 -123.170806 278 20ft 0kts
07-Dec-15 10:32 49.199000 -123.170806 278 20ft 0kts
07-Dec-15 10:33 49.199000 -123.170806 278 20ft 0kts
07-Dec-15 10:34 49.199000 -123.170806 278 20ft 0kts
07-Dec-15 10:35 49.199000 -123.170806 278 20ft 0kts
07-Dec-15 10:36 49.199000 -123.170806 278 20ft 0kts
07-Dec-15 10:37 49.199553 -123.175838 278 20ft 22kts
07-Dec-15 10:38 49.200478 -123.184115 280 20ft 17kts
07-Dec-15 10:39 49.201759 -123.190101 279 20ft 13kts
07-Dec-15 10:40 49.202450 -123.196330 280 20ft 19kts
07-Dec-15 10:41 49.202965 -123.200278 293 20ft 9kts
07-Dec-15 10:42 49.204866 -123.199226 100 20ft 17kts
07-Dec-15 10:43 49.198838 -123.145941 98 817ft 192kts
07-Dec-15 10:44 49.173524 -123.054226 132 2691ft 253kts
07-Dec-15 10:45 49.110404 -123.011678 176 5640ft 257kts
07-Dec-15 10:46 49.040262 -123.021878 182 8365ft 259kts
07-Dec-15 10:47 48.966779 -123.022842 182 10633ft 272kts
07-Dec-15 10:48 48.883955 -123.023758 193 11572ft 323kts
07-Dec-15 10:49 48.793176 -123.007802 161 13632ft 348kts
07-Dec-15 10:50 48.702935 -122.953103 166 15460ft 355kts
07-Dec-15 10:51 48.607885 -122.903550 167 17138ft 364kts
07-Dec-15 10:52 48.511519 -122.853164 169 18617ft 371kts
07-Dec-15 10:53 48.415153 -122.803519 169 19925ft 378kts
07-Dec-15 10:54 48.316044 -122.752687 169 21139ft 385kts
07-Dec-15 10:55 48.214307 -122.700719 170 22250ft 392kts
07-Dec-15 10:56 48.111497 -122.648424 170 23253ft 398kts
07-Dec-15 10:57 48.006157 -122.595070 170 24166ft 404kts
07-Dec-15 10:58 47.901404 -122.542272 170 24792ft 414kts
07-Dec-15 10:59 47.801832 -122.492273 171 24809ft 403kts
07-Dec-15 11:00 47.712673 -122.447709 170 24826ft 438kts
07-Dec-15 11:01 47.600978 -122.391974 170 24824ft 429kts
07-Dec-15 11:02 47.489527 -122.336693 170 24825ft 429kts
07-Dec-15 11:03 47.376477 -122.298524 188 24832ft 407kts
07-Dec-15 11:04 47.264970 -122.309573 189 24830ft 406kts
07-Dec-15 11:05 47.179883 -122.309879 188 24797ft 407kts
07-Dec-15 11:06 47.066405 -122.309832 187 23161ft 409kts
07-Dec-15 11:07 46.953191 -122.309752 187 21600ft 413kts
07-Dec-15 11:08 46.842054 -122.309746 186 20078ft 418kts
07-Dec-15 11:09 46.731251 -122.309657 186 18481ft 385kts
07-Dec-15 11:10 46.630897 -122.309686 187 16946ft 378kts
07-Dec-15 11:11 46.525986 -122.309672 187 15359ft 379kts
07-Dec-15 11:12 46.421171 -122.309672 188 13787ft 380kts
07-Dec-15 11:13 46.327719 -122.309550 190 12118ft 304kts
07-Dec-15 11:14 46.250401 -122.314143 203 11036ft 248kts
07-Dec-15 11:15 46.190498 -122.346846 208 11001ft 246kts
07-Dec-15 11:16 46.126644 -122.382504 206 10356ft 255kts
07-Dec-15 11:17 46.061627 -122.418246 201 8173ft 240kts
07-Dec-15 11:18 46.000276 -122.451340 196 6394ft 231kts
07-Dec-15 11:19 45.938528 -122.482973 189 4770ft 270kts
07-Dec-15 11:20 45.876077 -122.531753 243 4022ft 268kts
07-Dec-15 11:21 45.846813 -122.609059 243 3710ft 260kts
07-Dec-15 11:22 45.817617 -122.690459 244 3041ft 207kts
07-Dec-15 11:23 45.793117 -122.759562 246 2994ft 194kts
07-Dec-15 11:24 45.765679 -122.822852 228 2995ft 193kts
07-Dec-15 11:25 45.729060 -122.876868 207 2045ft 186kts
07-Dec-15 11:26 45.689966 -122.846669 111 2406ft 185kts
07-Dec-15 11:27 45.667234 -122.782330 117 2395ft 181kts
07-Dec-15 11:28 45.643544 -122.720937 118 1987ft 169kts
07-Dec-15 11:29 45.623490 -122.669305 119 1190ft 142kts
07-Dec-15 11:30 45.604443 -122.620390 119 446ft 140kts
07-Dec-15 11:31 45.588129 -122.578490 118 35ft 27kts
07-Dec-15 11:32 45.588019 -122.578203 118 35ft 0kts

Navigation Log

Ident Type
1. CYVR Airport
2. YVR Navaid
3. SEA Navaid
4. KPDX Airport